TimeEST,TemperatureF,Dew PointF,Humidity,Sea Level PressureIn,VisibilityMPH,Wind Direction,Wind SpeedMPH,Gust SpeedMPH,PrecipitationIn,Events,Conditions,WindDirDegrees,DateUTC
12:54 AM,15.1,-6.0,39,30.28,10.0,WNW,11.5,-,N/A,,Clear,290,2013-01-23 05:54:00
1:54 AM,14.0,-5.1,43,30.28,10.0,West,10.4,-,N/A,,Clear,280,2013-01-23 06:54:00
2:54 AM,14.0,-5.1,43,30.29,10.0,West,9.2,-,N/A,,Partly Cloudy,270,2013-01-23 07:54:00
3:54 AM,14.0,-2.9,47,30.28,10.0,West,9.2,-,N/A,,Partly Cloudy,270,2013-01-23 08:54:00
4:54 AM,12.9,-2.0,51,30.28,10.0,West,8.1,-,N/A,,Partly Cloudy,260,2013-01-23 09:54:00
5:54 AM,12.9,-0.9,54,30.29,10.0,West,11.5,-,N/A,,Clear,280,2013-01-23 10:54:00
6:54 AM,12.9,-2.0,51,30.30,10.0,West,9.2,-,N/A,,Partly Cloudy,280,2013-01-23 11:54:00
7:54 AM,14.0,-0.9,52,30.31,10.0,West,10.4,-,N/A,,Clear,270,2013-01-23 12:54:00
8:54 AM,15.1,-2.0,47,30.32,10.0,West,13.8,-,N/A,,Clear,280,2013-01-23 13:54:00
9:54 AM,17.1,-2.0,43,30.33,10.0,West,10.4,-,N/A,,Scattered Clouds,280,2013-01-23 14:54:00
10:54 AM,19.0,-2.9,38,30.32,10.0,WNW,11.5,25.3,N/A,,Scattered Clouds,300,2013-01-23 15:54:00
11:54 AM,19.0,-2.9,38,30.28,10.0,West,12.7,23.0,N/A,,Mostly Cloudy,280,2013-01-23 16:54:00
12:54 PM,19.9,-5.1,33,30.24,10.0,WNW,9.2,17.3,N/A,,Mostly Cloudy,290,2013-01-23 17:54:00
1:54 PM,19.9,-2.9,37,30.23,10.0,WNW,10.4,-,N/A,,Mostly Cloudy,300,2013-01-23 18:54:00
2:54 PM,21.0,-4.0,33,30.23,10.0,West,18.4,-,N/A,,Mostly Cloudy,270,2013-01-23 19:54:00
3:54 PM,19.9,-2.9,37,30.23,10.0,West,15.0,-,N/A,,Mostly Cloudy,280,2013-01-23 20:54:00
4:54 PM,19.9,-2.9,37,30.23,10.0,WNW,11.5,-,N/A,,Scattered Clouds,300,2013-01-23 21:54:00
5:54 PM,19.9,-2.0,38,30.25,10.0,WNW,9.2,-,N/A,,Scattered Clouds,290,2013-01-23 22:54:00
6:54 PM,19.9,-2.0,38,30.24,10.0,West,5.8,-,N/A,,Scattered Clouds,280,2013-01-23 23:54:00
7:54 PM,19.9,-2.0,38,30.23,10.0,Calm,Calm,-,N/A,,Scattered Clouds,0,2013-01-24 00:54:00
8:54 PM,17.1,-0.9,45,30.22,10.0,NNW,3.5,-,N/A,,Partly Cloudy,340,2013-01-24 01:54:00
9:54 PM,18.0,-0.0,45,30.23,10.0,NNW,4.6,-,N/A,,Partly Cloudy,340,2013-01-24 02:54:00
10:54 PM,18.0,1.0,48,30.22,10.0,North,3.5,-,N/A,,Overcast,10,2013-01-24 03:54:00
11:54 PM,18.0,1.9,50,30.20,10.0,Calm,Calm,-,N/A,,Overcast,0,2013-01-24 04:54:00